PWSweather.com
Personal Weather Stations
Station Observations
KCAOCEAN4
Jeffries Ranch, Oceanside, CA 92057

Jeffries RanchOceanside, CA 92057

Lat: 33.2463208, Lon: -117.25335080000002

Elevation: 207

Station Type: Davis Vantage Vue

jeffriesranchweather.com

High Low Average
Temperature 68.5°F20.3°C 38.7°F3.7°C 52.6°F11.4°C
Dew Point 55.9°F13.3°C 36.1°F2.3°C 46.2°F7.9°C
Winds 6.0 mph 9.7 kmh Calm Calm 1.0 mph SSE1.6 kmh SSE
Wind Gusts 12.1 mph19.5 kmh -- 3.0 mph4.8 kmh
Humidity 94% 41% 81%
Pressure 30.16 in1021.3 mb 30.04 in1017.3 mb -
Precipitation 0.00 in0.0 mm - -
Hour Temp Dew Point Humidity Winds Wind Gusts Pressure Precip Precip Rate Daily Precip Total
12:03 AM 47.8°F8.8°C 46.2°F7.9°C 94% 0.9 mph NE1.4 kmh NE 4.0 mph6.4 kmh 30.11 in1019.6 mb 0.00 in0.0 mm 0.00 in0.0 mm 0.00 in0.0 mm
12:13 AM 46.9°F8.3°C 45.3°F7.4°C 94% 0.9 mph SE1.4 kmh SE 2.9 mph4.7 kmh 30.11 in1019.6 mb 0.00 in0.0 mm 0.00 in0.0 mm 0.00 in0.0 mm
12:23 AM 46.2°F7.9°C 44.6°F7.0°C 94% Calm Calm 2.0 mph3.2 kmh 30.12 in1020.0 mb 0.00 in0.0 mm 0.00 in0.0 mm 0.00 in0.0 mm
12:33 AM 45.7°F7.6°C 44.1°F6.7°C 94% 0.9 mph ENE1.4 kmh ENE 2.0 mph3.2 kmh 30.12 in1020.0 mb 0.00 in0.0 mm 0.00 in0.0 mm 0.00 in0.0 mm
12:43 AM 45.0°F7.2°C 43.3°F6.3°C 94% 0.9 mph E1.4 kmh E 2.0 mph3.2 kmh 30.11 in1019.6 mb 0.00 in0.0 mm 0.00 in0.0 mm 0.00 in0.0 mm
12:53 AM 44.2°F6.8°C 42.6°F5.9°C 94% 0.9 mph E1.4 kmh E 4.9 mph7.9 kmh 30.11 in1019.6 mb 0.00 in0.0 mm 0.00 in0.0 mm 0.00 in0.0 mm
01:03 AM 43.7°F6.5°C 42.1°F5.6°C 94% 2.0 mph E3.2 kmh E 4.9 mph7.9 kmh 30.11 in1019.6 mb 0.00 in0.0 mm 0.00 in0.0 mm 0.00 in0.0 mm
01:13 AM 43.3°F6.3°C 41.5°F5.3°C 93% 2.0 mph ENE3.2 kmh ENE 4.9 mph7.9 kmh 30.11 in1019.6 mb 0.00 in0.0 mm 0.00 in0.0 mm 0.00 in0.0 mm
01:23 AM 43.3°F6.3°C 41.5°F5.3°C 93% 2.0 mph NE3.2 kmh NE 6.0 mph9.7 kmh 30.11 in1019.6 mb 0.00 in0.0 mm 0.00 in0.0 mm 0.00 in0.0 mm
01:33 AM 43.2°F6.2°C 41.4°F5.2°C 93% 0.9 mph E1.4 kmh E 4.0 mph6.4 kmh 30.11 in1019.6 mb 0.00 in0.0 mm 0.00 in0.0 mm 0.00 in0.0 mm
01:43 AM 43.0°F6.1°C 40.8°F4.9°C 92% 0.9 mph ENE1.4 kmh ENE 4.0 mph6.4 kmh 30.11 in1019.6 mb 0.00 in0.0 mm 0.00 in0.0 mm 0.00 in0.0 mm
01:53 AM 43.0°F6.1°C 40.8°F4.9°C 92% 0.9 mph E1.4 kmh E 4.0 mph6.4 kmh 30.11 in1019.6 mb 0.00 in0.0 mm 0.00 in0.0 mm 0.00 in0.0 mm
02:03 AM 42.8°F6.0°C 40.6°F4.8°C 92% 0.9 mph E1.4 kmh E 4.0 mph6.4 kmh 30.11 in1019.6 mb 0.00 in0.0 mm 0.00 in0.0 mm 0.00 in0.0 mm
02:13 AM 42.3°F5.7°C 40.1°F4.5°C 92% Calm Calm 2.0 mph3.2 kmh 30.11 in1019.6 mb 0.00 in0.0 mm 0.00 in0.0 mm 0.00 in0.0 mm
02:23 AM 42.1°F5.6°C 39.9°F4.4°C 92% 0.9 mph E1.4 kmh E 2.0 mph3.2 kmh 30.11 in1019.6 mb 0.00 in0.0 mm 0.00 in0.0 mm 0.00 in0.0 mm
02:33 AM 42.1°F5.6°C 39.9°F4.4°C 92% 0.9 mph E1.4 kmh E 2.0 mph3.2 kmh 30.10 in1019.3 mb 0.00 in0.0 mm 0.00 in0.0 mm 0.00 in0.0 mm
02:43 AM 41.9°F5.5°C 39.7°F4.3°C 92% 0.9 mph ESE1.4 kmh ESE 2.9 mph4.7 kmh 30.10 in1019.3 mb 0.00 in0.0 mm 0.00 in0.0 mm 0.00 in0.0 mm
02:53 AM 41.7°F5.4°C 39.6°F4.2°C 92% 2.0 mph SE3.2 kmh SE 2.9 mph4.7 kmh 30.11 in1019.6 mb 0.00 in0.0 mm 0.00 in0.0 mm 0.00 in0.0 mm
03:03 AM 41.5°F5.3°C 39.4°F4.1°C 92% 0.9 mph E1.4 kmh E 3.0 mph4.8 kmh 30.10 in1019.3 mb 0.00 in0.0 mm 0.00 in0.0 mm 0.00 in0.0 mm
03:13 AM 41.5°F5.3°C 39.2°F4.0°C 91% 2.0 mph E3.2 kmh E 4.0 mph6.4 kmh 30.10 in1019.3 mb 0.00 in0.0 mm 0.00 in0.0 mm 0.00 in0.0 mm
03:23 AM 41.2°F5.1°C 38.8°F3.8°C 91% 0.9 mph E1.4 kmh E 2.0 mph3.2 kmh 30.11 in1019.6 mb 0.00 in0.0 mm 0.00 in0.0 mm 0.00 in0.0 mm
03:34 AM 41.0°F5.0°C 38.7°F3.7°C 91% Calm Calm 2.0 mph3.2 kmh 30.11 in1019.6 mb 0.00 in0.0 mm 0.00 in0.0 mm 0.00 in0.0 mm
03:44 AM 41.0°F5.0°C 38.7°F3.7°C 91% Calm Calm 2.0 mph3.2 kmh 30.11 in1019.6 mb 0.00 in0.0 mm 0.00 in0.0 mm 0.00 in0.0 mm
03:54 AM 40.3°F4.6°C 37.9°F3.3°C 91% Calm Calm 0.9 mph1.4 kmh 30.11 in1019.6 mb 0.00 in0.0 mm 0.00 in0.0 mm 0.00 in0.0 mm
04:04 AM 40.3°F4.6°C 38.1°F3.4°C 92% Calm Calm -- 30.11 in1019.6 mb 0.00 in0.0 mm 0.00 in0.0 mm 0.00 in0.0 mm
04:14 AM 40.1°F4.5°C 38.3°F3.5°C 93% Calm Calm 2.0 mph3.2 kmh 30.11 in1019.6 mb 0.00 in0.0 mm 0.00 in0.0 mm 0.00 in0.0 mm
04:24 AM 40.3°F4.6°C 38.5°F3.6°C 93% 0.9 mph ENE1.4 kmh ENE 2.0 mph3.2 kmh 30.11 in1019.6 mb 0.00 in0.0 mm 0.00 in0.0 mm 0.00 in0.0 mm
04:34 AM 40.3°F4.6°C 38.1°F3.4°C 92% Calm Calm 2.0 mph3.2 kmh 30.11 in1019.6 mb 0.00 in0.0 mm 0.00 in0.0 mm 0.00 in0.0 mm
04:44 AM 40.3°F4.6°C 38.1°F3.4°C 92% Calm Calm 3.0 mph4.8 kmh 30.11 in1019.6 mb 0.00 in0.0 mm 0.00 in0.0 mm 0.00 in0.0 mm
04:54 AM 40.5°F4.7°C 38.1°F3.4°C 91% 2.0 mph NE3.2 kmh NE 4.0 mph6.4 kmh 30.11 in1019.6 mb 0.00 in0.0 mm 0.00 in0.0 mm 0.00 in0.0 mm
05:04 AM 40.1°F4.5°C 37.8°F3.2°C 91% 2.0 mph ENE3.2 kmh ENE 4.0 mph6.4 kmh 30.10 in1019.3 mb 0.00 in0.0 mm 0.00 in0.0 mm 0.00 in0.0 mm
05:14 AM 39.9°F4.4°C 37.6°F3.1°C 91% 2.0 mph E3.2 kmh E 4.0 mph6.4 kmh 30.11 in1019.6 mb 0.00 in0.0 mm 0.00 in0.0 mm 0.00 in0.0 mm
05:24 AM 39.7°F4.3°C 37.4°F3.0°C 91% 2.0 mph ENE3.2 kmh ENE 4.9 mph7.9 kmh 30.10 in1019.3 mb 0.00 in0.0 mm 0.00 in0.0 mm 0.00 in0.0 mm
05:34 AM 39.7°F4.3°C 37.0°F2.8°C 90% 2.9 mph ENE4.7 kmh ENE 4.9 mph7.9 kmh 30.10 in1019.3 mb 0.00 in0.0 mm 0.00 in0.0 mm 0.00 in0.0 mm
05:44 AM 39.6°F4.2°C 36.9°F2.7°C 90% 2.0 mph E3.2 kmh E 4.9 mph7.9 kmh 30.10 in1019.3 mb 0.00 in0.0 mm 0.00 in0.0 mm 0.00 in0.0 mm
05:54 AM 39.9°F4.4°C 37.2°F2.9°C 90% 2.0 mph E3.2 kmh E 4.9 mph7.9 kmh 30.10 in1019.3 mb 0.00 in0.0 mm 0.00 in0.0 mm 0.00 in0.0 mm
06:04 AM 40.3°F4.6°C 37.2°F2.9°C 89% 2.9 mph ENE4.7 kmh ENE 6.0 mph9.7 kmh 30.10 in1019.3 mb 0.00 in0.0 mm 0.00 in0.0 mm 0.00 in0.0 mm
06:14 AM 39.9°F4.4°C 36.7°F2.6°C 88% 2.0 mph E3.2 kmh E 6.0 mph9.7 kmh 30.11 in1019.6 mb 0.00 in0.0 mm 0.00 in0.0 mm 0.00 in0.0 mm
06:24 AM 39.4°F4.1°C 36.1°F2.3°C 88% Calm Calm 0.9 mph1.4 kmh 30.11 in1019.6 mb 0.00 in0.0 mm 0.00 in0.0 mm 0.00 in0.0 mm
06:34 AM 39.0°F3.9°C 36.1°F2.3°C 89% Calm Calm 2.0 mph3.2 kmh 30.11 in1019.6 mb 0.00 in0.0 mm 0.00 in0.0 mm 0.00 in0.0 mm
06:44 AM 39.4°F4.1°C 36.5°F2.5°C 89% 0.9 mph SE1.4 kmh SE 2.9 mph4.7 kmh 30.12 in1020.0 mb 0.00 in0.0 mm 0.00 in0.0 mm 0.00 in0.0 mm
06:54 AM 38.8°F3.8°C 36.1°F2.3°C 90% Calm Calm 1.0 mph1.6 kmh 30.12 in1020.0 mb 0.00 in0.0 mm 0.00 in0.0 mm 0.00 in0.0 mm
07:04 AM 38.7°F3.7°C 36.3°F2.4°C 91% Calm Calm 0.9 mph1.4 kmh 30.12 in1020.0 mb 0.00 in0.0 mm 0.00 in0.0 mm 0.00 in0.0 mm
07:14 AM 38.8°F3.8°C 36.5°F2.5°C 91% Calm Calm 0.9 mph1.4 kmh 30.13 in1020.3 mb 0.00 in0.0 mm 0.00 in0.0 mm 0.00 in0.0 mm
07:24 AM 39.6°F4.2°C 37.2°F2.9°C 91% 0.9 mph NE1.4 kmh NE 4.0 mph6.4 kmh 30.13 in1020.3 mb 0.00 in0.0 mm 0.00 in0.0 mm 0.00 in0.0 mm
07:34 AM 40.5°F4.7°C 37.4°F3.0°C 89% 0.9 mph ENE1.4 kmh ENE 2.9 mph4.7 kmh 30.13 in1020.3 mb 0.00 in0.0 mm 0.00 in0.0 mm 0.00 in0.0 mm
07:44 AM 41.0°F5.0°C 37.4°F3.0°C 87% 2.0 mph NE3.2 kmh NE 4.0 mph6.4 kmh 30.14 in1020.7 mb 0.00 in0.0 mm 0.00 in0.0 mm 0.00 in0.0 mm
07:54 AM 42.3°F5.7°C 38.1°F3.4°C 85% 2.0 mph ENE3.2 kmh ENE 4.9 mph7.9 kmh 30.14 in1020.7 mb 0.00 in0.0 mm 0.00 in0.0 mm 0.00 in0.0 mm
08:04 AM 43.5°F6.4°C 38.5°F3.6°C 82% 0.9 mph ENE1.4 kmh ENE 2.9 mph4.7 kmh 30.14 in1020.7 mb 0.00 in0.0 mm 0.00 in0.0 mm 0.00 in0.0 mm
08:14 AM 44.2°F6.8°C 38.5°F3.6°C 80% 0.9 mph ENE1.4 kmh ENE 2.9 mph4.7 kmh 30.14 in1020.7 mb 0.00 in0.0 mm 0.00 in0.0 mm 0.00 in0.0 mm
08:24 AM 45.0°F7.2°C 38.8°F3.8°C 79% Calm Calm 2.0 mph3.2 kmh 30.14 in1020.7 mb 0.00 in0.0 mm 0.00 in0.0 mm 0.00 in0.0 mm
08:34 AM 45.5°F7.5°C 39.0°F3.9°C 78% 0.9 mph E1.4 kmh E 2.9 mph4.7 kmh 30.14 in1020.7 mb 0.00 in0.0 mm 0.00 in0.0 mm 0.00 in0.0 mm
08:44 AM 46.6°F8.1°C 39.4°F4.1°C 76% 0.9 mph E1.4 kmh E 2.9 mph4.7 kmh 30.14 in1020.7 mb 0.00 in0.0 mm 0.00 in0.0 mm 0.00 in0.0 mm
08:54 AM 47.8°F8.8°C 39.6°F4.2°C 73% 0.9 mph NE1.4 kmh NE 4.0 mph6.4 kmh 30.14 in1020.7 mb 0.00 in0.0 mm 0.00 in0.0 mm 0.00 in0.0 mm
09:04 AM 49.3°F9.6°C 39.2°F4.0°C 68% 0.9 mph ENE1.4 kmh ENE 2.0 mph3.2 kmh 30.14 in1020.7 mb 0.00 in0.0 mm 0.00 in0.0 mm 0.00 in0.0 mm
09:14 AM 51.3°F10.7°C 39.6°F4.2°C 64% 0.9 mph E1.4 kmh E 2.9 mph4.7 kmh 30.15 in1021.0 mb 0.00 in0.0 mm 0.00 in0.0 mm 0.00 in0.0 mm
09:24 AM 53.1°F11.7°C 40.5°F4.7°C 62% Calm Calm 2.0 mph3.2 kmh 30.15 in1021.0 mb 0.00 in0.0 mm 0.00 in0.0 mm 0.00 in0.0 mm
09:34 AM 54.7°F12.6°C 41.5°F5.3°C 61% Calm Calm 0.9 mph1.4 kmh 30.15 in1021.0 mb 0.00 in0.0 mm 0.00 in0.0 mm 0.00 in0.0 mm
09:44 AM 56.8°F13.8°C 43.2°F6.2°C 60% Calm Calm 0.9 mph1.4 kmh 30.15 in1021.0 mb 0.00 in0.0 mm 0.00 in0.0 mm 0.00 in0.0 mm
09:54 AM 58.5°F14.7°C 42.8°F6.0°C 56% Calm Calm 0.9 mph1.4 kmh 30.15 in1021.0 mb 0.00 in0.0 mm 0.00 in0.0 mm 0.00 in0.0 mm
10:04 AM 59.2°F15.1°C 43.0°F6.1°C 55% Calm Calm 3.0 mph4.8 kmh 30.16 in1021.3 mb 0.00 in0.0 mm 0.00 in0.0 mm 0.00 in0.0 mm
10:14 AM 59.0°F15.0°C 40.5°F4.7°C 50% 2.0 mph WSW3.2 kmh WSW 4.0 mph6.4 kmh 30.15 in1021.0 mb 0.00 in0.0 mm 0.00 in0.0 mm 0.00 in0.0 mm
10:24 AM 59.9°F15.5°C 40.1°F4.5°C 48% 2.0 mph WNW3.2 kmh WNW 6.0 mph9.7 kmh 30.15 in1021.0 mb 0.00 in0.0 mm 0.00 in0.0 mm 0.00 in0.0 mm
10:34 AM 60.3°F15.7°C 39.9°F4.4°C 47% 2.0 mph NW3.2 kmh NW 6.0 mph9.7 kmh 30.15 in1021.0 mb 0.00 in0.0 mm 0.00 in0.0 mm 0.00 in0.0 mm
10:44 AM 60.1°F15.6°C 38.7°F3.7°C 45% 2.0 mph W3.2 kmh W 4.0 mph6.4 kmh 30.15 in1021.0 mb 0.00 in0.0 mm 0.00 in0.0 mm 0.00 in0.0 mm
10:54 AM 60.6°F15.9°C 38.7°F3.7°C 44% 2.0 mph WNW3.2 kmh WNW 4.0 mph6.4 kmh 30.14 in1020.7 mb 0.00 in0.0 mm 0.00 in0.0 mm 0.00 in0.0 mm
11:04 AM 62.1°F16.7°C 39.4°F4.1°C 43% Calm Calm 2.9 mph4.7 kmh 30.14 in1020.7 mb 0.00 in0.0 mm 0.00 in0.0 mm 0.00 in0.0 mm
11:14 AM 62.4°F16.9°C 39.0°F3.9°C 42% 0.9 mph W1.4 kmh W 2.0 mph3.2 kmh 30.14 in1020.7 mb 0.00 in0.0 mm 0.00 in0.0 mm 0.00 in0.0 mm
11:24 AM 62.4°F16.9°C 38.5°F3.6°C 41% 0.9 mph WNW1.4 kmh WNW 2.0 mph3.2 kmh 30.13 in1020.3 mb 0.00 in0.0 mm 0.00 in0.0 mm 0.00 in0.0 mm
11:34 AM 64.0°F17.8°C 39.9°F4.4°C 41% 0.9 mph SSE1.4 kmh SSE 2.9 mph4.7 kmh 30.12 in1020.0 mb 0.00 in0.0 mm 0.00 in0.0 mm 0.00 in0.0 mm
11:44 AM 64.8°F18.2°C 40.5°F4.7°C 41% 0.9 mph SE1.4 kmh SE 2.9 mph4.7 kmh 30.11 in1019.6 mb 0.00 in0.0 mm 0.00 in0.0 mm 0.00 in0.0 mm
11:54 AM 65.8°F18.8°C 43.3°F6.3°C 44% 0.9 mph WSW1.4 kmh WSW 2.0 mph3.2 kmh 30.10 in1019.3 mb 0.00 in0.0 mm 0.00 in0.0 mm 0.00 in0.0 mm
12:04 PM 65.8°F18.8°C 42.8°F6.0°C 43% 2.0 mph NW3.2 kmh NW 6.0 mph9.7 kmh 30.10 in1019.3 mb 0.00 in0.0 mm 0.00 in0.0 mm 0.00 in0.0 mm
12:14 PM 66.6°F19.2°C 45.1°F7.3°C 46% 0.9 mph WSW1.4 kmh WSW 4.9 mph7.9 kmh 30.09 in1019.0 mb 0.00 in0.0 mm 0.00 in0.0 mm 0.00 in0.0 mm
12:24 PM 66.9°F19.4°C 46.0°F7.8°C 47% 0.9 mph WSW1.4 kmh WSW 4.0 mph6.4 kmh 30.09 in1019.0 mb 0.00 in0.0 mm 0.00 in0.0 mm 0.00 in0.0 mm
12:34 PM 67.3°F19.6°C 46.9°F8.3°C 48% 2.0 mph WSW3.2 kmh WSW 4.9 mph7.9 kmh 30.08 in1018.6 mb 0.00 in0.0 mm 0.00 in0.0 mm 0.00 in0.0 mm
12:44 PM 67.8°F19.9°C 48.6°F9.2°C 50% 2.9 mph WNW4.7 kmh WNW 4.9 mph7.9 kmh 30.07 in1018.3 mb 0.00 in0.0 mm 0.00 in0.0 mm 0.00 in0.0 mm
12:54 PM 67.8°F19.9°C 50.5°F10.3°C 54% 2.9 mph W4.7 kmh W 7.0 mph11.3 kmh 30.07 in1018.3 mb 0.00 in0.0 mm 0.00 in0.0 mm 0.00 in0.0 mm
01:04 PM 68.2°F20.1°C 50.9°F10.5°C 54% 2.9 mph SW4.7 kmh SW 6.0 mph9.7 kmh 30.06 in1017.9 mb 0.00 in0.0 mm 0.00 in0.0 mm 0.00 in0.0 mm
01:14 PM 68.5°F20.3°C 53.2°F11.8°C 58% 2.0 mph WNW3.2 kmh WNW 6.0 mph9.7 kmh 30.05 in1017.6 mb 0.00 in0.0 mm 0.00 in0.0 mm 0.00 in0.0 mm
01:24 PM 67.5°F19.7°C 54.9°F12.7°C 64% 4.0 mph WSW6.4 kmh WSW 9.0 mph14.5 kmh 30.05 in1017.6 mb 0.00 in0.0 mm 0.00 in0.0 mm 0.00 in0.0 mm
01:34 PM 66.6°F19.2°C 55.2°F12.9°C 67% 4.9 mph W7.9 kmh W 8.1 mph13.0 kmh 30.04 in1017.3 mb 0.00 in0.0 mm 0.00 in0.0 mm 0.00 in0.0 mm
01:44 PM 65.5°F18.6°C 55.0°F12.8°C 69% 6.0 mph NW9.7 kmh NW 9.0 mph14.5 kmh 30.04 in1017.3 mb 0.00 in0.0 mm 0.00 in0.0 mm 0.00 in0.0 mm
01:54 PM 64.9°F18.3°C 55.4°F13.0°C 71% 6.0 mph NNW9.7 kmh NNW 9.0 mph14.5 kmh 30.04 in1017.3 mb 0.00 in0.0 mm 0.00 in0.0 mm 0.00 in0.0 mm
02:04 PM 64.6°F18.1°C 55.4°F13.0°C 72% 6.0 mph WNW9.7 kmh WNW 11.0 mph17.7 kmh 30.05 in1017.6 mb 0.00 in0.0 mm 0.00 in0.0 mm 0.00 in0.0 mm
02:14 PM 64.0°F17.8°C 55.2°F12.9°C 73% 6.0 mph W9.7 kmh W 12.1 mph19.5 kmh 30.05 in1017.6 mb 0.00 in0.0 mm 0.00 in0.0 mm 0.00 in0.0 mm
02:24 PM 63.7°F17.6°C 54.9°F12.7°C 73% 6.0 mph WNW9.7 kmh WNW 12.1 mph19.5 kmh 30.05 in1017.6 mb 0.00 in0.0 mm 0.00 in0.0 mm 0.00 in0.0 mm
02:34 PM 63.7°F17.6°C 54.9°F12.7°C 73% 6.0 mph WNW9.7 kmh WNW 10.1 mph16.3 kmh 30.05 in1017.6 mb 0.00 in0.0 mm 0.00 in0.0 mm 0.00 in0.0 mm
02:44 PM 64.0°F17.8°C 55.2°F12.9°C 73% 4.0 mph W6.4 kmh W 8.1 mph13.0 kmh 30.05 in1017.6 mb 0.00 in0.0 mm 0.00 in0.0 mm 0.00 in0.0 mm
02:54 PM 63.1°F17.3°C 54.7°F12.6°C 74% 4.0 mph W6.4 kmh W 6.9 mph11.1 kmh 30.06 in1017.9 mb 0.00 in0.0 mm 0.00 in0.0 mm 0.00 in0.0 mm
03:04 PM 62.8°F17.1°C 55.0°F12.8°C 76% 2.9 mph SW4.7 kmh SW 4.9 mph7.9 kmh 30.05 in1017.6 mb 0.00 in0.0 mm 0.00 in0.0 mm 0.00 in0.0 mm
03:14 PM 63.0°F17.2°C 55.2°F12.9°C 76% 0.9 mph WSW1.4 kmh WSW 4.0 mph6.4 kmh 30.05 in1017.6 mb 0.00 in0.0 mm 0.00 in0.0 mm 0.00 in0.0 mm
03:24 PM 63.5°F17.5°C 55.8°F13.2°C 76% 2.9 mph SW4.7 kmh SW 5.0 mph8.0 kmh 30.06 in1017.9 mb 0.00 in0.0 mm 0.00 in0.0 mm 0.00 in0.0 mm
03:34 PM 63.7°F17.6°C 55.6°F13.1°C 75% 2.9 mph W4.7 kmh W 6.0 mph9.7 kmh 30.06 in1017.9 mb 0.00 in0.0 mm 0.00 in0.0 mm 0.00 in0.0 mm
03:44 PM 63.7°F17.6°C 55.9°F13.3°C 76% 4.0 mph WNW6.4 kmh WNW 6.9 mph11.1 kmh 30.06 in1017.9 mb 0.00 in0.0 mm 0.00 in0.0 mm 0.00 in0.0 mm
03:54 PM 63.3°F17.4°C 55.6°F13.1°C 76% 2.9 mph WSW4.7 kmh WSW 6.0 mph9.7 kmh 30.06 in1017.9 mb 0.00 in0.0 mm 0.00 in0.0 mm 0.00 in0.0 mm
04:04 PM 63.0°F17.2°C 55.6°F13.1°C 77% 2.0 mph SW3.2 kmh SW 6.0 mph9.7 kmh 30.07 in1018.3 mb 0.00 in0.0 mm 0.00 in0.0 mm 0.00 in0.0 mm
04:14 PM 62.4°F16.9°C 55.4°F13.0°C 78% 2.0 mph W3.2 kmh W 4.0 mph6.4 kmh 30.06 in1017.9 mb 0.00 in0.0 mm 0.00 in0.0 mm 0.00 in0.0 mm
04:24 PM 62.1°F16.7°C 55.4°F13.0°C 79% 2.0 mph SW3.2 kmh SW 4.0 mph6.4 kmh 30.07 in1018.3 mb 0.00 in0.0 mm 0.00 in0.0 mm 0.00 in0.0 mm
04:34 PM 61.3°F16.3°C 55.0°F12.8°C 80% 0.9 mph SW1.4 kmh SW 4.9 mph7.9 kmh 30.07 in1018.3 mb 0.00 in0.0 mm 0.00 in0.0 mm 0.00 in0.0 mm
04:44 PM 61.0°F16.1°C 55.0°F12.8°C 81% 0.9 mph WSW1.4 kmh WSW 3.0 mph4.8 kmh 30.07 in1018.3 mb 0.00 in0.0 mm 0.00 in0.0 mm 0.00 in0.0 mm
04:54 PM 60.3°F15.7°C 55.0°F12.8°C 83% Calm Calm 2.0 mph3.2 kmh 30.08 in1018.6 mb 0.00 in0.0 mm 0.00 in0.0 mm 0.00 in0.0 mm
05:04 PM 59.7°F15.4°C 54.9°F12.7°C 84% Calm Calm 2.0 mph3.2 kmh 30.08 in1018.6 mb 0.00 in0.0 mm 0.00 in0.0 mm 0.00 in0.0 mm
05:14 PM 59.4°F15.2°C 54.9°F12.7°C 85% Calm Calm 0.9 mph1.4 kmh 30.09 in1019.0 mb 0.00 in0.0 mm 0.00 in0.0 mm 0.00 in0.0 mm
05:24 PM 58.8°F14.9°C 54.7°F12.6°C 86% 0.9 mph SW1.4 kmh SW 2.0 mph3.2 kmh 30.09 in1019.0 mb 0.00 in0.0 mm 0.00 in0.0 mm 0.00 in0.0 mm
05:34 PM 58.6°F14.8°C 54.9°F12.7°C 87% 0.9 mph SW1.4 kmh SW 2.9 mph4.7 kmh 30.09 in1019.0 mb 0.00 in0.0 mm 0.00 in0.0 mm 0.00 in0.0 mm
05:44 PM 58.5°F14.7°C 54.9°F12.7°C 88% Calm Calm 3.0 mph4.8 kmh 30.09 in1019.0 mb 0.00 in0.0 mm 0.00 in0.0 mm 0.00 in0.0 mm
05:54 PM 58.3°F14.6°C 54.7°F12.6°C 88% 0.9 mph S1.4 kmh S 2.9 mph4.7 kmh 30.09 in1019.0 mb 0.00 in0.0 mm 0.00 in0.0 mm 0.00 in0.0 mm
06:04 PM 57.9°F14.4°C 54.7°F12.6°C 89% 0.9 mph S1.4 kmh S 2.9 mph4.7 kmh 30.10 in1019.3 mb 0.00 in0.0 mm 0.00 in0.0 mm 0.00 in0.0 mm
06:14 PM 57.6°F14.2°C 54.3°F12.4°C 89% Calm Calm 2.0 mph3.2 kmh 30.10 in1019.3 mb 0.00 in0.0 mm 0.00 in0.0 mm 0.00 in0.0 mm
06:24 PM 57.6°F14.2°C 54.7°F12.6°C 90% 0.9 mph SSE1.4 kmh SSE 2.9 mph4.7 kmh 30.10 in1019.3 mb 0.00 in0.0 mm 0.00 in0.0 mm 0.00 in0.0 mm
06:34 PM 57.2°F14.0°C 54.3°F12.4°C 90% Calm Calm 2.0 mph3.2 kmh 30.10 in1019.3 mb 0.00 in0.0 mm 0.00 in0.0 mm 0.00 in0.0 mm
06:44 PM 56.8°F13.8°C 54.3°F12.4°C 91% 0.9 mph SE1.4 kmh SE 2.0 mph3.2 kmh 30.10 in1019.3 mb 0.00 in0.0 mm 0.00 in0.0 mm 0.00 in0.0 mm
06:54 PM 56.5°F13.6°C 54.0°F12.2°C 91% 0.9 mph SE1.4 kmh SE 3.0 mph4.8 kmh 30.10 in1019.3 mb 0.00 in0.0 mm 0.00 in0.0 mm 0.00 in0.0 mm
07:04 PM 56.1°F13.4°C 53.6°F12.0°C 91% 0.9 mph SE1.4 kmh SE 2.0 mph3.2 kmh 30.10 in1019.3 mb 0.00 in0.0 mm 0.00 in0.0 mm 0.00 in0.0 mm
07:14 PM 55.9°F13.3°C 53.4°F11.9°C 91% Calm Calm 0.9 mph1.4 kmh 30.10 in1019.3 mb 0.00 in0.0 mm 0.00 in0.0 mm 0.00 in0.0 mm
07:24 PM 55.8°F13.2°C 53.4°F11.9°C 92% Calm Calm -- 30.11 in1019.6 mb 0.00 in0.0 mm 0.00 in0.0 mm 0.00 in0.0 mm
07:34 PM 56.1°F13.4°C 53.8°F12.1°C 92% Calm Calm -- 30.11 in1019.6 mb 0.00 in0.0 mm 0.00 in0.0 mm 0.00 in0.0 mm
07:44 PM 55.9°F13.3°C 53.6°F12.0°C 92% Calm Calm -- 30.11 in1019.6 mb 0.00 in0.0 mm 0.00 in0.0 mm 0.00 in0.0 mm
07:54 PM 55.9°F13.3°C 53.6°F12.0°C 92% Calm Calm 2.0 mph3.2 kmh 30.11 in1019.6 mb 0.00 in0.0 mm 0.00 in0.0 mm 0.00 in0.0 mm
08:04 PM 56.1°F13.4°C 53.8°F12.1°C 92% 0.9 mph SE1.4 kmh SE 2.9 mph4.7 kmh 30.11 in1019.6 mb 0.00 in0.0 mm 0.00 in0.0 mm 0.00 in0.0 mm
08:14 PM 55.9°F13.3°C 53.6°F12.0°C 92% Calm Calm 2.0 mph3.2 kmh 30.11 in1019.6 mb 0.00 in0.0 mm 0.00 in0.0 mm 0.00 in0.0 mm
08:24 PM 55.8°F13.2°C 53.4°F11.9°C 92% Calm Calm 1.0 mph1.6 kmh 30.10 in1019.3 mb 0.00 in0.0 mm 0.00 in0.0 mm 0.00 in0.0 mm
08:34 PM 55.6°F13.1°C 53.2°F11.8°C 92% 0.9 mph E1.4 kmh E 2.0 mph3.2 kmh 30.11 in1019.6 mb 0.00 in0.0 mm 0.00 in0.0 mm 0.00 in0.0 mm
08:44 PM 55.2°F12.9°C 52.9°F11.6°C 92% Calm Calm 0.9 mph1.4 kmh 30.10 in1019.3 mb 0.00 in0.0 mm 0.00 in0.0 mm 0.00 in0.0 mm
08:54 PM 55.0°F12.8°C 52.7°F11.5°C 92% Calm Calm 0.9 mph1.4 kmh 30.11 in1019.6 mb 0.00 in0.0 mm 0.00 in0.0 mm 0.00 in0.0 mm
09:04 PM 54.5°F12.5°C 52.2°F11.2°C 92% Calm Calm 0.9 mph1.4 kmh 30.11 in1019.6 mb 0.00 in0.0 mm 0.00 in0.0 mm 0.00 in0.0 mm
09:14 PM 54.1°F12.3°C 51.8°F11.0°C 92% Calm Calm 0.9 mph1.4 kmh 30.11 in1019.6 mb 0.00 in0.0 mm 0.00 in0.0 mm 0.00 in0.0 mm
09:24 PM 53.8°F12.1°C 51.4°F10.8°C 92% Calm Calm -- 30.12 in1020.0 mb 0.00 in0.0 mm 0.00 in0.0 mm 0.00 in0.0 mm
09:34 PM 53.8°F12.1°C 51.4°F10.8°C 92% Calm Calm 1.0 mph1.6 kmh 30.12 in1020.0 mb 0.00 in0.0 mm 0.00 in0.0 mm 0.00 in0.0 mm
09:44 PM 53.2°F11.8°C 50.9°F10.5°C 92% Calm Calm -- 30.12 in1020.0 mb 0.00 in0.0 mm 0.00 in0.0 mm 0.00 in0.0 mm
09:54 PM 52.9°F11.6°C 50.5°F10.3°C 92% Calm Calm -- 30.13 in1020.3 mb 0.00 in0.0 mm 0.00 in0.0 mm 0.00 in0.0 mm
10:04 PM 52.5°F11.4°C 50.5°F10.3°C 93% Calm Calm 0.9 mph1.4 kmh 30.13 in1020.3 mb 0.00 in0.0 mm 0.00 in0.0 mm 0.00 in0.0 mm
10:14 PM 52.5°F11.4°C 50.5°F10.3°C 93% Calm Calm 0.9 mph1.4 kmh 30.13 in1020.3 mb 0.00 in0.0 mm 0.00 in0.0 mm 0.00 in0.0 mm
10:24 PM 52.5°F11.4°C 50.5°F10.3°C 93% 0.9 mph E1.4 kmh E 2.0 mph3.2 kmh 30.13 in1020.3 mb 0.00 in0.0 mm 0.00 in0.0 mm 0.00 in0.0 mm
10:34 PM 52.7°F11.5°C 50.7°F10.4°C 93% 0.9 mph E1.4 kmh E 2.0 mph3.2 kmh 30.12 in1020.0 mb 0.00 in0.0 mm 0.00 in0.0 mm 0.00 in0.0 mm
10:44 PM 53.4°F11.9°C 51.8°F11.0°C 94% 0.9 mph NE1.4 kmh NE 2.9 mph4.7 kmh 30.13 in1020.3 mb 0.00 in0.0 mm 0.00 in0.0 mm 0.00 in0.0 mm
10:54 PM 52.5°F11.4°C 50.5°F10.3°C 93% 2.0 mph NE3.2 kmh NE 4.0 mph6.4 kmh 30.12 in1020.0 mb 0.00 in0.0 mm 0.00 in0.0 mm 0.00 in0.0 mm
11:04 PM 52.3°F11.3°C 50.4°F10.2°C 93% Calm Calm 0.9 mph1.4 kmh 30.13 in1020.3 mb 0.00 in0.0 mm 0.00 in0.0 mm 0.00 in0.0 mm
11:14 PM 52.0°F11.1°C 50.0°F10.0°C 93% Calm Calm 2.9 mph4.7 kmh 30.13 in1020.3 mb 0.00 in0.0 mm 0.00 in0.0 mm 0.00 in0.0 mm
11:24 PM 51.6°F10.9°C 49.6°F9.8°C 93% Calm Calm -- 30.13 in1020.3 mb 0.00 in0.0 mm 0.00 in0.0 mm 0.00 in0.0 mm
11:34 PM 51.4°F10.8°C 49.5°F9.7°C 93% Calm Calm -- 30.12 in1020.0 mb 0.00 in0.0 mm 0.00 in0.0 mm 0.00 in0.0 mm
11:44 PM 51.3°F10.7°C 49.3°F9.6°C 93% Calm Calm -- 30.12 in1020.0 mb 0.00 in0.0 mm 0.00 in0.0 mm 0.00 in0.0 mm
11:54 PM 51.3°F10.7°C 49.3°F9.6°C 93% Calm Calm -- 30.11 in1019.6 mb 0.00 in0.0 mm 0.00 in0.0 mm 0.00 in0.0 mm